createdAt,value
2018-11-22T00:00:28.511Z,18.4
2018-11-22T00:01:30.140Z,18.3
2018-11-22T00:02:31.464Z,18.4
2018-11-22T00:03:32.785Z,18.4
2018-11-22T00:04:34.402Z,18.4
2018-11-22T00:05:36.022Z,18.3
2018-11-22T00:06:37.922Z,18.3
2018-11-22T00:07:39.263Z,18.3
2018-11-22T00:08:41.161Z,18.3
2018-11-22T00:09:43.057Z,18.4
2018-11-22T00:10:44.962Z,18.4
2018-11-22T00:11:46.001Z,18.3
2018-11-22T00:12:47.903Z,18.3
2018-11-22T00:13:49.521Z,18.3
2018-11-22T00:14:51.140Z,18.4
2018-11-22T00:15:52.739Z,18.3
2018-11-22T00:16:54.359Z,18.3
2018-11-22T00:17:56.255Z,18.3
2018-11-22T00:18:57.874Z,18.3
2018-11-22T00:19:59.470Z,18.3
2018-11-22T00:21:01.117Z,18.3
2018-11-22T00:22:02.462Z,18.3
2018-11-22T00:23:03.785Z,18.2
2018-11-22T00:24:05.417Z,18.3
2018-11-22T00:25:06.758Z,18.3
2018-11-22T00:26:08.380Z,18.2
2018-11-22T00:27:09.425Z,18.3
2018-11-22T00:28:11.047Z,18.3
2018-11-22T00:29:12.942Z,18.3
2018-11-22T00:30:14.285Z,18.3
2018-11-22T00:31:15.626Z,18.3
2018-11-22T00:32:16.968Z,18.3
2018-11-22T00:33:18.870Z,18.3
2018-11-22T00:34:20.491Z,18.3
2018-11-22T00:35:21.807Z,18.3
2018-11-22T00:36:23.430Z,18.3
2018-11-22T00:37:25.048Z,18.3
2018-11-22T00:38:26.670Z,18.3
2018-11-22T00:39:28.294Z,18.3
2018-11-22T00:40:29.892Z,18.3
2018-11-22T00:41:30.672Z,18.3
2018-11-22T00:42:32.289Z,18.2
2018-11-22T00:43:33.909Z,18.3
2018-11-22T00:44:35.560Z,18.3
2018-11-22T00:45:36.624Z,18.3
2018-11-22T00:46:37.970Z,18.3
2018-11-22T00:47:39.591Z,18.3
2018-11-22T00:48:41.186Z,18.3
2018-11-22T00:49:42.809Z,18.3
2018-11-22T00:50:44.429Z,18.4
2018-11-22T00:51:46.027Z,18.3
2018-11-22T00:52:47.924Z,18.2
2018-11-22T00:53:49.246Z,18.3
2018-11-22T00:54:50.843Z,18.2
2018-11-22T00:55:52.187Z,18.3
2018-11-22T00:56:53.787Z,18.3
2018-11-22T00:57:55.687Z,18.3
2018-11-22T00:58:57.581Z,18.3
2018-11-22T00:59:59.477Z,18.3
2018-11-22T01:01:01.101Z,18.3
2018-11-22T01:02:02.441Z,18.3
2018-11-22T01:03:04.339Z,18.3
2018-11-22T01:04:05.939Z,18.3
2018-11-22T01:05:07.287Z,18.4
2018-11-22T01:06:08.334Z,18.3
2018-11-22T01:07:10.230Z,18.4
2018-11-22T01:08:12.126Z,18.3
2018-11-22T01:09:13.744Z,18.3
2018-11-22T01:10:15.363Z,18.3
2018-11-22T01:11:16.686Z,18.5
2018-11-22T01:12:18.006Z,18.3
2018-11-22T01:13:19.625Z,18.3
2018-11-22T01:14:21.239Z,18.3
2018-11-22T01:15:22.556Z,18.3
2018-11-22T01:16:24.174Z,18.3
2018-11-22T01:17:25.219Z,18.3
2018-11-22T01:18:26.558Z,18.3
2018-11-22T01:19:27.882Z,18.3
2018-11-22T01:20:29.200Z,18.3
2018-11-22T01:21:30.797Z,18.3
2018-11-22T01:22:32.123Z,18.3
2018-11-22T01:23:33.435Z,18.3
2018-11-22T01:24:34.476Z,18.3
2018-11-22T01:25:36.374Z,18.3
2018-11-22T01:26:37.993Z,18.3
2018-11-22T01:27:39.616Z,18.4
2018-11-22T01:28:41.232Z,18.3
2018-11-22T01:29:43.127Z,18.3
2018-11-22T01:30:44.722Z,18.3
2018-11-22T01:31:46.622Z,18.3
2018-11-22T01:32:47.961Z,18.3
2018-11-22T01:33:49.852Z,18.2
2018-11-22T01:34:51.191Z,18.4
2018-11-22T01:35:52.809Z,18.3
2018-11-22T01:36:54.428Z,18.3
2018-11-22T01:37:56.022Z,18.3
2018-11-22T01:38:57.358Z,18.3
2018-11-22T01:39:58.680Z,18.3
2018-11-22T01:41:00.282Z,18.3
2018-11-22T01:42:01.920Z,18.2
2018-11-22T01:43:03.536Z,18.4
2018-11-22T01:44:05.158Z,18.3
2018-11-22T01:45:07.056Z,18.3
2018-11-22T01:46:08.379Z,18.3
2018-11-22T01:47:09.422Z,18.4
2018-11-22T01:48:11.042Z,18.2
2018-11-22T01:49:12.940Z,18.3
2018-11-22T01:50:14.832Z,18.3
2018-11-22T01:51:16.451Z,18.3
2018-11-22T01:52:17.792Z,18.3
2018-11-22T01:53:18.849Z,18.3
2018-11-22T01:54:20.189Z,18.3
2018-11-22T01:55:21.810Z,18.3
2018-11-22T01:56:23.706Z,18.3
2018-11-22T01:57:25.047Z,18.3
2018-11-22T01:58:25.820Z,18.3
2018-11-22T01:59:27.164Z,18.3
2018-11-22T02:00:28.513Z,18.3
2018-11-22T02:01:30.126Z,18.3
2018-11-22T02:02:31.746Z,18.3
2018-11-22T02:03:32.806Z,18.3
2018-11-22T02:04:34.699Z,18.3
2018-11-22T02:05:36.297Z,18.2
2018-11-22T02:06:38.190Z,18.3
2018-11-22T02:07:39.532Z,18.3
2018-11-22T02:08:40.875Z,18.4
2018-11-22T02:09:41.921Z,18.3
2018-11-22T02:10:43.541Z,18.3
2018-11-22T02:11:45.435Z,18.3
2018-11-22T02:12:47.032Z,18.3
2018-11-22T02:13:48.353Z,18.3
2018-11-22T02:14:50.251Z,18.3
2018-11-22T02:15:52.145Z,18.3
2018-11-22T02:16:53.764Z,18.3
2018-11-22T02:17:55.382Z,18.4
2018-11-22T02:18:57.275Z,18.3
2018-11-22T02:19:58.626Z,18.3
2018-11-22T02:21:00.531Z,18.3
2018-11-22T02:22:02.155Z,18.3
2018-11-22T02:23:03.501Z,18.3
2018-11-22T02:24:05.397Z,18.3
2018-11-22T02:25:07.314Z,18.3
2018-11-22T02:26:08.635Z,18.4
2018-11-22T02:27:10.257Z,18.3
2018-11-22T02:28:12.153Z,18.4
2018-11-22T02:29:13.750Z,18.3
2018-11-22T02:30:15.369Z,18.3
2018-11-22T02:31:17.270Z,18.3
2018-11-22T02:32:18.885Z,18.4
2018-11-22T02:33:20.780Z,18.3
2018-11-22T02:34:22.396Z,18.3
2018-11-22T02:35:23.993Z,18.3
2018-11-22T02:36:25.612Z,18.3
2018-11-22T02:37:26.938Z,18.3
2018-11-22T02:38:28.553Z,18.3
2018-11-22T02:39:29.323Z,18.3
2018-11-22T02:40:30.923Z,18.3
2018-11-22T02:41:32.244Z,18.3
2018-11-22T02:42:33.864Z,18.3
2018-11-22T02:43:35.210Z,18.3
2018-11-22T02:44:36.835Z,18.3
2018-11-22T02:45:38.147Z,18.3
2018-11-22T02:46:39.191Z,18.3
2018-11-22T02:47:40.539Z,18.3
2018-11-22T02:48:42.440Z,18.3
2018-11-22T02:49:44.031Z,18.2
2018-11-22T02:50:45.645Z,18.3
2018-11-22T02:51:46.994Z,18.3
2018-11-22T02:52:48.887Z,18.3
2018-11-22T02:53:50.781Z,18.3
2018-11-22T02:54:52.401Z,18.3
2018-11-22T02:55:53.446Z,18.3
2018-11-22T02:56:55.067Z,18.3
2018-11-22T02:57:56.416Z,18.3
2018-11-22T02:58:58.030Z,18.3
2018-11-22T02:59:59.926Z,18.3
2018-11-22T03:01:01.822Z,18.3
2018-11-22T03:02:03.715Z,18.2
2018-11-22T03:03:05.035Z,18.3
2018-11-22T03:04:06.653Z,18.3
2018-11-22T03:05:08.271Z,18.2
2018-11-22T03:06:10.166Z,18.3
2018-11-22T03:07:12.062Z,18.3
2018-11-22T03:08:13.682Z,18.3
2018-11-22T03:09:15.579Z,18.3
2018-11-22T03:10:17.476Z,18.3
2018-11-22T03:11:18.794Z,18.3
2018-11-22T03:12:20.692Z,18.3
2018-11-22T03:13:22.036Z,18.3
2018-11-22T03:14:23.652Z,18.3
2018-11-22T03:15:24.999Z,18.3
2018-11-22T03:16:26.599Z,18.3
2018-11-22T03:17:28.217Z,18.3
2018-11-22T03:18:29.837Z,18.3
2018-11-22T03:19:31.731Z,18.3
2018-11-22T03:20:33.049Z,18.2
2018-11-22T03:21:34.390Z,18.3
2018-11-22T03:22:36.008Z,18.3
2018-11-22T03:23:37.902Z,18.3
2018-11-22T03:24:38.942Z,18.3
2018-11-22T03:25:39.987Z,18.3
2018-11-22T03:26:41.882Z,18.3
2018-11-22T03:27:43.499Z,18.3
2018-11-22T03:28:45.100Z,18.3
2018-11-22T03:29:46.991Z,18.3
2018-11-22T03:30:48.034Z,18.3
2018-11-22T03:31:49.935Z,18.3
2018-11-22T03:32:51.556Z,18.2
2018-11-22T03:33:53.175Z,18.3
2018-11-22T03:34:54.514Z,18.2
2018-11-22T03:35:56.139Z,18.2
2018-11-22T03:36:57.477Z,18.3
2018-11-22T03:37:59.097Z,18.2
2018-11-22T03:39:00.998Z,18.3
2018-11-22T03:40:02.341Z,18.2
2018-11-22T03:41:04.235Z,18.2
2018-11-22T03:42:05.843Z,18.2
2018-11-22T03:43:07.468Z,18.1
2018-11-22T03:44:08.812Z,18.3
2018-11-22T03:45:10.431Z,18.2
2018-11-22T03:46:11.500Z,18.2
2018-11-22T03:47:12.843Z,18.2
2018-11-22T03:48:14.465Z,18.1
2018-11-22T03:49:16.064Z,18.2
2018-11-22T03:50:17.682Z,18.2
2018-11-22T03:51:18.719Z,18.2
2018-11-22T03:52:20.072Z,18.3
2018-11-22T03:53:21.389Z,18.3
2018-11-22T03:54:23.013Z,18.3
2018-11-22T03:55:24.328Z,18.3
2018-11-22T03:56:25.648Z,18.3
2018-11-22T03:57:27.544Z,18.2
2018-11-22T03:58:28.593Z,18.2
2018-11-22T03:59:30.209Z,18.2
2018-11-22T04:00:32.104Z,18.3
2018-11-22T04:01:33.726Z,18.2
2018-11-22T04:02:35.343Z,18.2
2018-11-22T04:03:37.237Z,18.2
2018-11-22T04:04:38.829Z,18.2
2018-11-22T04:05:40.450Z,18.3
2018-11-22T04:06:42.062Z,18.3
2018-11-22T04:07:43.677Z,18.2
2018-11-22T04:08:45.297Z,18.2
2018-11-22T04:09:46.916Z,18.2
2018-11-22T04:10:48.258Z,18.4
2018-11-22T04:11:49.578Z,18.2
2018-11-22T04:12:51.202Z,18.2
2018-11-22T04:13:53.098Z,18.2
2018-11-22T04:14:54.715Z,18.2
2018-11-22T04:15:56.342Z,18.2
2018-11-22T04:16:57.965Z,18.2
2018-11-22T04:17:59.581Z,18.2
2018-11-22T04:19:00.929Z,18.1
2018-11-22T04:20:02.527Z,18.3
2018-11-22T04:21:04.145Z,18.1
2018-11-22T04:22:05.768Z,18.2
2018-11-22T04:23:07.363Z,18.2
2018-11-22T04:24:09.263Z,18.1
2018-11-22T04:25:11.157Z,18.3
2018-11-22T04:26:12.202Z,18.3
2018-11-22T04:27:13.819Z,18.2
2018-11-22T04:28:15.714Z,18.2
2018-11-22T04:29:17.333Z,18.2
2018-11-22T04:30:18.950Z,18.2
2018-11-22T04:31:20.846Z,18.2
2018-11-22T04:32:21.890Z,18.2
2018-11-22T04:33:23.786Z,18.3
2018-11-22T04:34:25.403Z,18.2
2018-11-22T04:35:27.316Z,18.2
2018-11-22T04:36:28.916Z,18.2
2018-11-22T04:37:30.824Z,18.3
2018-11-22T04:38:32.443Z,18.3
2018-11-22T04:39:34.042Z,18.2
2018-11-22T04:40:35.358Z,18.2
2018-11-22T04:41:36.980Z,18.3
2018-11-22T04:42:38.332Z,18.3
2018-11-22T04:43:39.951Z,18.3
2018-11-22T04:44:41.846Z,18.3
2018-11-22T04:45:43.464Z,18.3
2018-11-22T04:46:45.080Z,18.3
2018-11-22T04:47:46.400Z,18.3
2018-11-22T04:48:48.006Z,18.3
2018-11-22T04:49:49.619Z,18.2
2018-11-22T04:50:51.233Z,18.3
2018-11-22T04:51:52.557Z,18.3
2018-11-22T04:52:54.154Z,18.3
2018-11-22T04:53:55.773Z,18.3
2018-11-22T04:54:57.391Z,18.3
2018-11-22T04:55:58.723Z,18.3
2018-11-22T04:57:00.322Z,18.2
2018-11-22T04:58:01.943Z,18.2
2018-11-22T04:59:03.840Z,18.2
2018-11-22T05:00:05.458Z,18.3
2018-11-22T05:01:07.074Z,18.3
2018-11-22T05:02:08.694Z,18.2
2018-11-22T05:03:10.034Z,18.3
2018-11-22T05:04:11.652Z,18.3
2018-11-22T05:05:13.271Z,18.3
2018-11-22T05:06:15.169Z,18.2
2018-11-22T05:07:16.766Z,18.3
2018-11-22T05:08:18.383Z,18.3
2018-11-22T05:09:19.983Z,18.2
2018-11-22T05:10:21.890Z,18.3
2018-11-22T05:11:23.775Z,18.3
2018-11-22T05:12:25.669Z,18.4
2018-11-22T05:13:27.287Z,18.4
2018-11-22T05:14:28.904Z,18.3
2018-11-22T05:15:30.850Z,18.3
2018-11-22T05:16:32.747Z,18.3
2018-11-22T05:17:34.342Z,18.3
2018-11-22T05:18:35.961Z,18.3
2018-11-22T05:19:37.856Z,18.4
2018-11-22T05:20:39.471Z,18.3
2018-11-22T05:21:40.532Z,18.3
2018-11-22T05:22:41.577Z,18.4
2018-11-22T05:23:43.192Z,18.2
2018-11-22T05:24:44.813Z,18.3
2018-11-22T05:25:46.430Z,18.3
2018-11-22T05:26:48.325Z,18.3
2018-11-22T05:27:49.943Z,18.3
2018-11-22T05:28:51.838Z,18.4
2018-11-22T05:29:53.178Z,18.4
2018-11-22T05:30:55.073Z,18.4
2018-11-22T05:31:56.682Z,18.4
2018-11-22T05:32:58.577Z,18.3
2018-11-22T05:33:59.621Z,18.4
2018-11-22T05:35:00.967Z,18.4
2018-11-22T05:36:02.862Z,18.5
2018-11-22T05:37:04.758Z,18.3
2018-11-22T05:38:06.655Z,18.3
2018-11-22T05:39:08.550Z,18.4
2018-11-22T05:40:10.147Z,18.3
2018-11-22T05:41:12.042Z,18.3
2018-11-22T05:42:13.082Z,18.4
2018-11-22T05:43:14.979Z,18.4
2018-11-22T05:44:16.872Z,18.4
2018-11-22T05:45:18.768Z,18.4
2018-11-22T05:46:19.811Z,18.3
2018-11-22T05:47:21.707Z,18.4
2018-11-22T05:48:23.075Z,18.4
2018-11-22T05:49:24.422Z,18.4
2018-11-22T05:50:25.734Z,18.4
2018-11-22T05:51:27.627Z,18.4
2018-11-22T05:52:29.523Z,18.3
2018-11-22T05:53:30.864Z,18.4
2018-11-22T05:54:32.759Z,18.5
2018-11-22T05:55:34.684Z,18.3
2018-11-22T05:56:36.028Z,18.3
2018-11-22T05:57:37.642Z,18.3
2018-11-22T05:58:39.261Z,18.4
2018-11-22T05:59:40.327Z,18.3
2018-11-22T06:00:41.926Z,18.4
2018-11-22T06:01:43.819Z,18.3
2018-11-22T06:02:45.717Z,18.3
2018-11-22T06:03:47.313Z,18.3
2018-11-22T06:04:48.633Z,18.4
2018-11-22T06:05:50.531Z,18.4
2018-11-22T06:06:52.421Z,18.4
2018-11-22T06:07:54.054Z,18.3
2018-11-22T06:08:55.670Z,18.4
2018-11-22T06:09:57.284Z,18.4
2018-11-22T06:10:59.198Z,18.5
2018-11-22T06:12:00.815Z,18.4
2018-11-22T06:13:02.417Z,18.5
2018-11-22T06:14:04.308Z,18.4
2018-11-22T06:15:05.906Z,18.4
2018-11-22T06:16:07.530Z,18.4
2018-11-22T06:17:09.145Z,18.4
2018-11-22T06:18:10.465Z,18.4
2018-11-22T06:19:12.104Z,18.4
2018-11-22T06:20:13.171Z,18.5
2018-11-22T06:21:14.787Z,18.4
2018-11-22T06:22:16.679Z,18.5
2018-11-22T06:23:18.001Z,18.5
2018-11-22T06:24:19.318Z,18.4
2018-11-22T06:25:20.914Z,18.4
2018-11-22T06:26:22.535Z,18.5
2018-11-22T06:27:24.150Z,18.4
2018-11-22T06:28:25.195Z,18.4
2018-11-22T06:29:26.815Z,18.5
2018-11-22T06:30:28.710Z,18.5
2018-11-22T06:31:29.773Z,18.4
2018-11-22T06:32:31.094Z,18.5
2018-11-22T06:33:32.989Z,18.5
2018-11-22T06:34:34.331Z,18.5
2018-11-22T06:35:36.230Z,18.4
2018-11-22T06:36:37.849Z,18.4
2018-11-22T06:37:38.897Z,18.5
2018-11-22T06:38:40.238Z,18.5
2018-11-22T06:39:41.558Z,18.4
2018-11-22T06:40:43.176Z,18.5
2018-11-22T06:41:44.515Z,18.5
2018-11-22T06:42:46.411Z,18.5
2018-11-22T06:43:48.306Z,18.6
2018-11-22T06:44:50.200Z,18.5
2018-11-22T06:45:51.822Z,18.6
2018-11-22T06:46:53.149Z,18.4
2018-11-22T06:47:54.769Z,18.5
2018-11-22T06:48:56.113Z,18.5
2018-11-22T06:49:57.455Z,18.5
2018-11-22T06:50:59.351Z,18.5
2018-11-22T06:52:00.971Z,18.5
2018-11-22T06:53:02.646Z,18.5
2018-11-22T06:54:03.983Z,18.5
2018-11-22T06:55:05.322Z,18.6
2018-11-22T06:56:07.227Z,18.5
2018-11-22T06:57:08.272Z,18.5
2018-11-22T06:58:10.221Z,18.5
2018-11-22T06:59:11.567Z,18.5
2018-11-22T07:00:13.176Z,18.5
2018-11-22T07:01:14.548Z,18.5
2018-11-22T07:02:16.497Z,18.5
2018-11-22T07:03:18.493Z,18.5
2018-11-22T07:04:20.020Z,18.5
2018-11-22T07:05:21.622Z,18.5
2018-11-22T07:06:23.238Z,18.4
2018-11-22T07:07:25.140Z,18.5
2018-11-22T07:08:26.752Z,18.4
2018-11-22T07:09:28.647Z,18.5
2018-11-22T07:10:29.969Z,18.5
2018-11-22T07:11:31.586Z,18.4
2018-11-22T07:12:33.206Z,18.5
2018-11-22T07:13:35.101Z,18.6
2018-11-22T07:14:36.723Z,18.5
2018-11-22T07:15:38.346Z,18.5
2018-11-22T07:16:39.666Z,18.4
2018-11-22T07:17:41.019Z,18.6
2018-11-22T07:18:42.664Z,18.5
2018-11-22T07:19:44.294Z,18.5
2018-11-22T07:20:45.913Z,18.5
2018-11-22T07:21:47.232Z,18.5
2018-11-22T07:22:49.136Z,18.5
2018-11-22T07:23:50.750Z,18.6
2018-11-22T07:24:52.073Z,18.5
2018-11-22T07:25:53.674Z,18.5
2018-11-22T07:26:55.291Z,18.5
2018-11-22T07:27:57.201Z,18.5
2018-11-22T07:28:58.549Z,18.5
2018-11-22T07:30:00.448Z,18.4
2018-11-22T07:31:01.790Z,18.5
2018-11-22T07:32:03.404Z,18.5
2018-11-22T07:33:05.006Z,18.5
2018-11-22T07:34:06.900Z,18.6
2018-11-22T07:35:08.795Z,18.5
2018-11-22T07:36:10.135Z,18.6
2018-11-22T07:37:11.759Z,18.6
2018-11-22T07:38:13.360Z,18.6
2018-11-22T07:39:14.962Z,18.5
2018-11-22T07:40:16.867Z,18.5
2018-11-22T07:41:18.467Z,18.5
2018-11-22T07:42:19.793Z,18.5
2018-11-22T07:43:21.689Z,18.5
2018-11-22T07:44:23.008Z,18.6
2018-11-22T07:45:24.916Z,18.5
2018-11-22T07:46:26.743Z,18.5
2018-11-22T07:47:28.064Z,18.5
2018-11-22T07:48:29.390Z,18.6
2018-11-22T07:49:30.727Z,18.5
2018-11-22T07:50:32.369Z,18.5
2018-11-22T07:51:33.990Z,18.5
2018-11-22T07:52:35.060Z,18.5
2018-11-22T07:53:36.101Z,18.6
2018-11-22T07:54:37.699Z,18.5
2018-11-22T07:55:38.741Z,18.5
2018-11-22T07:56:40.682Z,18.5
2018-11-22T07:57:42.009Z,18.5
2018-11-22T07:58:43.622Z,18.5
2018-11-22T07:59:44.948Z,18.6
2018-11-22T08:00:46.289Z,18.5
2018-11-22T08:01:47.912Z,18.5
2018-11-22T08:02:49.529Z,18.6
2018-11-22T08:03:51.159Z,18.5
2018-11-22T08:04:52.469Z,18.5
2018-11-22T08:05:54.087Z,18.5
2018-11-22T08:06:55.704Z,18.5
2018-11-22T08:07:57.351Z,18.5
2018-11-22T08:08:58.663Z,18.5
2018-11-22T08:10:00.004Z,18.5
2018-11-22T08:11:01.322Z,18.5
2018-11-22T08:12:02.944Z,18.4
2018-11-22T08:13:04.541Z,18.5
2018-11-22T08:14:06.161Z,18.6
2018-11-22T08:15:07.480Z,18.6
2018-11-22T08:16:09.377Z,18.6
2018-11-22T08:17:10.694Z,18.5
2018-11-22T08:18:12.589Z,18.6
2018-11-22T08:19:13.911Z,18.6
2018-11-22T08:20:15.853Z,18.6
2018-11-22T08:21:17.477Z,18.6
2018-11-22T08:22:19.097Z,18.6
2018-11-22T08:23:20.718Z,18.6
2018-11-22T08:24:22.336Z,18.6
2018-11-22T08:25:23.959Z,18.6
2018-11-22T08:26:25.302Z,18.6
2018-11-22T08:27:26.900Z,18.6
2018-11-22T08:28:28.244Z,18.6
2018-11-22T08:29:29.842Z,18.6
2018-11-22T08:30:31.737Z,18.5
2018-11-22T08:31:33.078Z,18.6
2018-11-22T08:32:34.971Z,18.6
2018-11-22T08:33:36.572Z,18.7
2018-11-22T08:34:37.622Z,18.7
2018-11-22T08:35:39.518Z,18.6
2018-11-22T08:36:41.414Z,18.7
2018-11-22T08:37:42.458Z,18.7
2018-11-22T08:38:43.505Z,18.7
2018-11-22T08:39:45.122Z,18.7
2018-11-22T08:40:46.741Z,18.7
2018-11-22T08:42:55.064Z,18.7
2018-11-22T08:43:57.084Z,18.7
2018-11-22T08:44:58.683Z,18.6
2018-11-22T08:46:00.600Z,18.7
2018-11-22T08:47:02.200Z,18.7
2018-11-22T08:48:03.806Z,18.6
2018-11-22T08:49:05.145Z,18.7
2018-11-22T08:50:06.199Z,18.8
2018-11-22T08:51:07.824Z,18.7
2018-11-22T08:52:09.452Z,18.7
2018-11-22T08:53:11.210Z,18.7
2018-11-22T08:54:12.831Z,18.8
2018-11-22T08:55:14.456Z,18.7
2018-11-22T08:56:15.968Z,18.7
2018-11-22T08:57:17.831Z,18.7
2018-11-22T08:58:19.526Z,18.7
2018-11-22T08:59:21.128Z,18.7
2018-11-22T09:00:23.026Z,18.7
2018-11-22T09:01:24.651Z,18.7
2018-11-22T09:02:25.978Z,18.7
2018-11-22T09:03:27.603Z,18.7
2018-11-22T09:05:29.978Z,18.8
2018-11-22T09:06:31.997Z,18.8
2018-11-22T09:07:33.623Z,18.7
2018-11-22T09:08:34.964Z,18.8
2018-11-22T09:09:36.373Z,18.7
2018-11-22T09:10:37.982Z,18.7
2018-11-22T09:11:39.597Z,18.7
2018-11-22T09:12:41.204Z,18.7
2018-11-22T09:13:42.808Z,18.7
2018-11-22T09:14:44.202Z,18.8
2018-11-22T09:15:46.030Z,18.7
2018-11-22T09:16:48.261Z,18.8
2018-11-22T09:17:50.257Z,18.8
2018-11-22T09:18:51.601Z,18.8
2018-11-22T09:19:53.556Z,18.8
2018-11-22T09:20:55.150Z,18.9
2018-11-22T09:21:56.781Z,18.8
2018-11-22T09:22:57.569Z,18.9
2018-11-22T09:23:58.909Z,18.8
2018-11-22T09:25:00.584Z,18.8
2018-11-22T09:26:02.481Z,18.8
2018-11-22T09:27:04.379Z,18.8
2018-11-22T09:28:06.280Z,18.8
2018-11-22T09:29:07.353Z,18.8
2018-11-22T09:30:08.973Z,18.8
2018-11-22T09:31:10.317Z,18.8
2018-11-22T09:32:11.670Z,18.8
2018-11-22T09:33:13.292Z,18.7
2018-11-22T09:34:14.959Z,18.8
2018-11-22T09:35:16.733Z,18.8
2018-11-22T09:36:19.093Z,18.8
2018-11-22T09:37:20.709Z,18.8
2018-11-22T09:38:22.607Z,18.9
2018-11-22T09:39:23.695Z,18.9
2018-11-22T09:40:25.320Z,19
2018-11-22T09:41:26.665Z,18.9
2018-11-22T09:42:28.564Z,18.9
2018-11-22T09:43:30.170Z,18.9
2018-11-22T09:44:31.776Z,18.9
2018-11-22T09:45:33.383Z,19
2018-11-22T09:46:35.011Z,19
2018-11-22T09:47:36.335Z,18.9
2018-11-22T09:48:38.324Z,19
2018-11-22T09:49:40.006Z,19
2018-11-22T09:50:41.631Z,18.9
2018-11-22T09:51:43.250Z,18.9
2018-11-22T09:52:44.872Z,18.9
2018-11-22T09:53:46.498Z,18.9
2018-11-22T09:54:47.824Z,18.8
2018-11-22T09:55:49.146Z,18.8
2018-11-22T09:56:51.042Z,18.9
2018-11-22T09:57:52.647Z,18.8
2018-11-22T09:58:54.270Z,18.9
2018-11-22T09:59:55.693Z,18.9
2018-11-22T10:00:57.297Z,18.8
2018-11-22T10:01:58.917Z,18.9
2018-11-22T10:03:00.886Z,19
2018-11-22T10:04:02.461Z,18.9
2018-11-22T10:05:04.574Z,18.8
2018-11-22T10:06:06.976Z,18.8
2018-11-22T10:07:08.648Z,18.8
2018-11-22T10:08:10.548Z,18.8
2018-11-22T10:09:12.195Z,18.8
2018-11-22T10:10:14.120Z,18.8
2018-11-22T10:11:15.712Z,18.9
2018-11-22T10:12:17.093Z,18.8
2018-11-22T10:13:18.533Z,18.9
2018-11-22T10:14:20.425Z,18.9
2018-11-22T10:15:21.758Z,18.9
2018-11-22T10:16:23.655Z,19
2018-11-22T10:17:25.280Z,18.9
2018-11-22T10:18:27.179Z,18.9
2018-11-22T10:19:29.004Z,18.9
2018-11-22T10:20:30.899Z,18.8
2018-11-22T10:21:31.958Z,18.8
2018-11-22T10:22:33.901Z,18.8
2018-11-22T10:23:35.598Z,18.9
2018-11-22T10:24:36.945Z,19
2018-11-22T10:25:38.570Z,18.9
2018-11-22T10:26:40.463Z,18.9
2018-11-22T10:27:42.359Z,18.9
2018-11-22T10:28:44.001Z,18.9
2018-11-22T10:29:45.351Z,18.9
2018-11-22T10:30:46.984Z,18.9
2018-11-22T10:31:48.984Z,18.9
2018-11-22T10:32:50.896Z,18.9
2018-11-22T10:33:52.519Z,18.7
2018-11-22T10:34:54.414Z,18.8
2018-11-22T10:35:55.499Z,18.8
2018-11-22T10:36:56.279Z,18.8
2018-11-22T10:37:58.364Z,18.7
2018-11-22T10:39:00.606Z,18.8
2018-11-22T10:40:02.625Z,18.8
2018-11-22T10:41:04.521Z,18.8
2018-11-22T10:42:06.148Z,18.8
2018-11-22T10:44:08.561Z,18.8
2018-11-22T10:45:11.687Z,18.8
2018-11-22T10:46:13.814Z,18.8
2018-11-22T10:47:15.522Z,18.8
2018-11-22T10:48:17.002Z,18.9
2018-11-22T10:49:18.629Z,18.9
2018-11-22T10:50:19.980Z,19
2018-11-22T10:51:21.880Z,19
2018-11-22T10:52:23.236Z,19
2018-11-22T10:53:24.598Z,19
2018-11-22T10:54:26.325Z,19
2018-11-22T10:55:27.653Z,18.9
2018-11-22T10:56:29.008Z,18.9
2018-11-22T10:57:30.946Z,18.9
2018-11-22T10:58:32.409Z,19
2018-11-22T10:59:33.758Z,18.8
2018-11-22T11:00:35.112Z,18.8
2018-11-22T11:01:36.466Z,18.8
2018-11-22T11:02:38.000Z,18.8
2018-11-22T11:03:39.627Z,18.8
2018-11-22T11:04:40.981Z,18.8
2018-11-22T11:05:42.882Z,19
2018-11-22T11:06:44.781Z,19
2018-11-22T11:07:45.886Z,18.9
2018-11-22T11:08:47.783Z,18.9
2018-11-22T11:09:49.688Z,18.9
2018-11-22T11:10:51.013Z,18.9
2018-11-22T11:11:52.908Z,19
2018-11-22T11:12:54.232Z,19
2018-11-22T11:13:55.860Z,18.9
2018-11-22T11:14:57.756Z,19
2018-11-22T11:15:59.125Z,18.8
2018-11-22T11:17:00.750Z,19
2018-11-22T11:18:02.409Z,18.8
2018-11-22T11:19:03.462Z,18.9
2018-11-22T11:20:05.416Z,19
2018-11-22T11:22:08.749Z,18.9
2018-11-22T11:23:10.362Z,18.9
2018-11-22T11:24:11.990Z,18.9
2018-11-22T11:25:14.091Z,18.9
2018-11-22T11:26:15.718Z,18.9
2018-11-22T11:27:17.343Z,18.9
2018-11-22T11:28:19.004Z,18.9
2018-11-22T11:29:20.897Z,18.9
2018-11-22T11:30:22.521Z,19
2018-11-22T11:31:24.419Z,18.8
2018-11-22T11:32:25.800Z,18.8
2018-11-22T11:33:27.425Z,18.8
2018-11-22T11:34:29.326Z,18.8
2018-11-22T11:35:31.252Z,18.8
2018-11-22T11:36:33.153Z,18.9
2018-11-22T11:37:34.475Z,18.9
2018-11-22T11:38:36.098Z,18.9
2018-11-22T11:39:37.430Z,18.9
2018-11-22T11:40:38.486Z,18.9
2018-11-22T11:41:40.384Z,19
2018-11-22T11:42:41.433Z,18.9
2018-11-22T11:43:43.332Z,18.9
2018-11-22T11:44:44.958Z,18.9
2018-11-22T11:45:46.855Z,18.9
2018-11-22T11:46:48.756Z,19
2018-11-22T11:47:50.379Z,18.9
2018-11-22T11:48:51.986Z,18.9
2018-11-22T11:49:53.883Z,18.9
2018-11-22T11:50:55.231Z,19
2018-11-22T11:51:56.844Z,18.9
2018-11-22T11:52:58.744Z,18.9
2018-11-22T11:54:00.089Z,18.9
2018-11-22T11:55:01.422Z,19
2018-11-22T11:56:03.335Z,19
2018-11-22T11:57:04.406Z,18.9
2018-11-22T11:58:06.304Z,18.9
2018-11-22T11:59:07.910Z,19
2018-11-22T12:00:09.808Z,18.9
2018-11-22T12:01:11.436Z,18.9
2018-11-22T12:02:15.336Z,18.9
2018-11-22T12:03:17.006Z,19
2018-11-22T12:04:18.904Z,19.1
2018-11-22T12:05:20.533Z,19
2018-11-22T12:06:22.137Z,19
2018-11-22T12:07:23.475Z,19.1
2018-11-22T12:08:25.076Z,19.1
2018-11-22T12:09:27.004Z,19.2
2018-11-22T12:10:28.852Z,19.2
2018-11-22T12:11:30.750Z,19.2
2018-11-22T12:12:32.357Z,19.2
2018-11-22T12:13:34.306Z,19.2
2018-11-22T12:14:35.919Z,19.2
2018-11-22T12:15:37.541Z,19.2
2018-11-22T12:16:38.892Z,19.2
2018-11-22T12:17:40.499Z,19.2
2018-11-22T12:18:41.829Z,19.1
2018-11-22T12:19:43.455Z,19.1
2018-11-22T12:20:44.803Z,19.1
2018-11-22T12:21:46.159Z,19.1
2018-11-22T12:22:47.780Z,19.1
2018-11-22T12:23:49.385Z,19.2
2018-11-22T12:24:51.284Z,19.2
2018-11-22T12:25:52.908Z,19.2
2018-11-22T12:26:54.809Z,19.3
2018-11-22T12:27:56.432Z,19.4
2018-11-22T12:28:58.330Z,19.3
2018-11-22T12:29:59.679Z,19.4
2018-11-22T12:31:06.220Z,19.4
2018-11-22T12:32:08.335Z,19.3
2018-11-22T12:33:10.232Z,19.3
2018-11-22T12:34:11.858Z,19.4
2018-11-22T12:35:13.757Z,19.4
2018-11-22T12:36:15.081Z,19.4
2018-11-22T12:37:16.711Z,19.4
2018-11-22T12:38:18.364Z,19.4
2018-11-22T12:39:20.265Z,19.4
2018-11-22T12:40:21.600Z,19.4
2018-11-22T12:41:23.222Z,19.5
2018-11-22T12:42:24.850Z,19.4
2018-11-22T12:43:26.747Z,19.4
2018-11-22T12:44:28.645Z,19.4
2018-11-22T12:45:30.255Z,19.4
2018-11-22T12:46:31.862Z,19.4
2018-11-22T12:47:33.271Z,19.4
2018-11-22T12:48:34.602Z,19.4
2018-11-22T12:49:36.206Z,19.4
2018-11-22T12:50:37.554Z,19.4
2018-11-22T12:51:38.904Z,19.3
2018-11-22T12:52:40.508Z,19.4
2018-11-22T12:53:41.839Z,19.3
2018-11-22T12:54:43.736Z,19.4
2018-11-22T12:55:45.088Z,19.4
2018-11-22T12:56:46.986Z,19.4
2018-11-22T12:57:48.883Z,19.4
2018-11-22T12:58:50.230Z,19.3
2018-11-22T12:59:51.851Z,19.4
2018-11-22T13:00:53.622Z,19.4
2018-11-22T13:01:55.521Z,19.4
2018-11-22T13:02:57.422Z,19.4
2018-11-22T13:03:59.318Z,19.4
2018-11-22T13:05:01.214Z,19.5
2018-11-22T13:06:03.110Z,19.5
2018-11-22T13:07:04.457Z,19.5
2018-11-22T13:08:06.084Z,19.5
2018-11-22T13:09:07.980Z,19.5
2018-11-22T13:10:09.603Z,19.5
2018-11-22T13:11:11.220Z,19.4
2018-11-22T13:12:12.843Z,19.5
2018-11-22T13:13:14.189Z,19.5
2018-11-22T13:14:15.806Z,19.5
2018-11-22T13:15:17.132Z,19.5
2018-11-22T13:16:18.757Z,19.6
2018-11-22T13:17:20.379Z,19.5
2018-11-22T13:18:21.711Z,19.5
2018-11-22T13:19:23.607Z,19.5
2018-11-22T13:20:24.934Z,19.5
2018-11-22T13:21:26.553Z,19.5
2018-11-22T13:22:27.907Z,19.5
2018-11-22T13:23:29.242Z,19.5
2018-11-22T13:24:30.860Z,19.6
2018-11-22T13:25:32.480Z,19.5
2018-11-22T13:26:34.103Z,19.5
2018-11-22T13:27:35.995Z,19.5
2018-11-22T13:28:37.891Z,19.6
2018-11-22T13:29:39.517Z,19.6
2018-11-22T13:30:41.135Z,19.6
2018-11-22T13:31:42.756Z,19.6
2018-11-22T13:32:44.827Z,19.6
2018-11-22T13:33:46.170Z,19.6
2018-11-22T13:34:48.064Z,19.6
2018-11-22T13:35:49.718Z,19.6
2018-11-22T13:36:51.341Z,19.6
2018-11-22T13:37:52.715Z,19.6
2018-11-22T13:38:54.608Z,19.6
2018-11-22T13:39:56.215Z,19.6
2018-11-22T13:40:57.539Z,19.6
2018-11-22T13:41:58.885Z,19.6
2018-11-22T13:43:00.517Z,19.6
2018-11-22T13:44:02.473Z,19.6
2018-11-22T13:45:04.121Z,19.6
2018-11-22T13:46:05.477Z,19.6